Time;durP1;ratioP1;P1;durP2;ratioP2;P2;SDS_P1;SDS_P2;PMS_P1;PMS_P2;Temp;Humidity;BMP_temperature;BMP_pressure;BME280_temperature;BME280_humidity;BME280_pressure;Samples;Min_cycle;Max_cycle;Signal;HPM_P1;HPM_P2
2022/01/31 00:01:46;;;;;;;1.97;1.20;;;8.90;99.90;;;;;;6243009;23;20171;-96
2022/01/31 00:04:19;;;;;;;2.80;1.57;;;8.90;99.90;;;;;;6242497;23;20170;-93
2022/01/31 00:06:53;;;;;;;3.70;1.53;;;8.90;99.90;;;;;;6232934;23;20203;-93
2022/01/31 00:09:25;;;;;;;2.80;1.37;;;8.80;99.90;;;;;;6237789;23;20183;-94
2022/01/31 00:12:00;;;;;;;3.67;1.50;;;8.80;99.90;;;;;;6237705;23;20176;-94
2022/01/31 00:14:38;;;;;;;7.00;1.67;;;8.70;99.90;;;;;;6237713;23;20164;-92
2022/01/31 00:17:12;;;;;;;3.37;1.60;;;8.70;99.90;;;;;;6213569;23;20185;-93
2022/01/31 00:19:44;;;;;;;3.23;1.80;;;8.60;99.90;;;;;;6239382;23;20165;-94
2022/01/31 00:22:26;;;;;;;5.13;2.03;;;8.60;99.90;;;;;;6239328;23;20176;-94
2022/01/31 00:25:00;;;;;;;2.87;2.17;;;8.60;99.90;;;;;;6238862;23;20226;-92
2022/01/31 00:27:33;;;;;;;2.53;2.13;;;8.60;99.90;;;;;;6211488;23;20176;-94
2022/01/31 00:30:06;;;;;;;4.00;1.93;;;8.50;99.90;;;;;;6239040;23;20167;-94
2022/01/31 00:32:37;;;;;;;2.93;1.73;;;8.50;99.90;;;;;;6240497;23;20227;-93
2022/01/31 00:35:09;;;;;;;4.60;2.67;;;8.50;99.90;;;;;;6235408;23;20192;-92
2022/01/31 00:37:42;;;;;;;5.53;1.73;;;8.60;99.90;;;;;;6234247;23;20172;-93
2022/01/31 00:40:17;;;;;;;2.60;1.87;;;8.70;99.90;;;;;;6234882;23;20191;-94
2022/01/31 00:42:51;;;;;;;3.07;1.40;;;8.70;99.90;;;;;;6233401;23;20622;-93
2022/01/31 00:45:25;;;;;;;3.37;1.70;;;8.70;99.90;;;;;;6237026;23;20210;-94
2022/01/31 00:48:04;;;;;;;4.43;2.23;;;8.70;99.90;;;;;;6237041;23;20206;-94
2022/01/31 00:50:39;;;;;;;7.07;3.37;;;8.70;99.90;;;;;;6221732;22;20219;-93
2022/01/31 00:53:13;;;;;;;2.67;2.03;;;8.70;99.90;;;;;;6212508;23;20175;-93
2022/01/31 00:55:48;;;;;;;2.27;1.40;;;8.70;99.90;;;;;;6235120;23;20210;-93
2022/01/31 00:58:25;;;;;;;7.00;1.93;;;8.80;99.90;;;;;;6238522;23;20216;-94
2022/01/31 01:00:58;;;;;;;3.67;1.73;;;8.70;99.90;;;;;;6239769;23;20155;-94
2022/01/31 01:03:32;;;;;;;3.17;1.80;;;8.70;99.90;;;;;;6235229;23;20184;-93
2022/01/31 01:06:03;;;;;;;3.13;1.37;;;8.60;99.90;;;;;;6231052;23;20432;-94
2022/01/31 01:08:37;;;;;;;3.83;1.60;;;8.60;99.90;;;;;;6235704;23;20153;-94
2022/01/31 01:11:09;;;;;;;6.73;3.40;;;8.60;99.90;;;;;;6237810;23;20187;-94
2022/01/31 01:13:40;;;;;;;2.77;1.77;;;8.60;99.90;;;;;;6233611;23;20176;-93
2022/01/31 01:16:12;;;;;;;2.97;1.60;;;8.60;99.90;;;;;;6228809;23;20259;-94
2022/01/31 01:18:44;;;;;;;4.50;1.40;;;8.60;99.90;;;;;;6234460;23;20168;-93
2022/01/31 01:21:18;;;;;;;6.43;4.43;;;8.50;99.90;;;;;;6204912;23;20168;-93
2022/01/31 01:23:51;;;;;;;1.43;1.13;;;8.40;99.90;;;;;;6233990;23;20175;-95
2022/01/31 01:26:27;;;;;;;3.00;1.50;;;8.30;99.90;;;;;;6240060;23;20167;-95
2022/01/31 01:28:59;;;;;;;53.77;11.30;;;8.20;99.90;;;;;;6240262;23;20168;-94
2022/01/31 01:31:30;;;;;;;2.03;1.37;;;8.10;99.90;;;;;;6239465;23;20164;-94
2022/01/31 01:34:02;;;;;;;2.20;1.30;;;7.90;99.90;;;;;;6236233;23;20168;-93
2022/01/31 01:36:34;;;;;;;3.73;1.83;;;7.80;99.90;;;;;;6240648;23;20208;-94
2022/01/31 01:39:09;;;;;;;4.50;2.33;;;7.70;99.90;;;;;;6215400;23;20199;-95
2022/01/31 01:41:40;;;;;;;5.20;4.70;;;7.70;99.90;;;;;;6233762;23;20187;-94
2022/01/31 01:52:11;;;;;;;1.60;1.40;;;7.40;99.90;;;;;;6217193;22;20214;-95
2022/01/31 01:54:46;;;;;;;1.70;1.27;;;7.40;99.90;;;;;;6237405;23;20179;-93
2022/01/31 01:57:18;;;;;;;3.53;2.27;;;7.30;99.90;;;;;;6236370;23;20199;-93
2022/01/31 01:59:54;;;;;;;4.73;1.93;;;7.30;99.90;;;;;;6237636;23;20195;-94
2022/01/31 02:02:27;;;;;;;1.77;1.50;;;7.30;99.90;;;;;;6211098;23;20628;-94
2022/01/31 02:04:58;;;;;;;7.13;1.60;;;7.20;99.90;;;;;;6228413;22;20223;-92
2022/01/31 02:07:30;;;;;;;3.83;2.20;;;7.10;99.90;;;;;;6234339;23;20254;-94
2022/01/31 02:10:04;;;;;;;4.47;2.40;;;7.10;99.90;;;;;;6234981;23;20211;-93
2022/01/31 02:12:43;;;;;;;3.90;1.77;;;7.10;99.90;;;;;;6236788;23;20172;-93
2022/01/31 02:15:15;;;;;;;3.67;1.70;;;7.00;99.90;;;;;;6240141;23;20171;-93
2022/01/31 02:17:46;;;;;;;3.60;1.70;;;7.00;99.90;;;;;;6240013;23;20204;-93
2022/01/31 02:20:18;;;;;;;3.07;1.80;;;7.00;99.90;;;;;;6237330;23;20169;-93
2022/01/31 02:22:52;;;;;;;3.40;2.00;;;7.00;99.90;;;;;;6237396;23;20244;-93
2022/01/31 02:25:23;;;;;;;3.03;1.30;;;7.00;99.90;;;;;;6234276;23;20230;-94
2022/01/31 02:27:55;;;;;;;4.07;1.80;;;7.00;99.90;;;;;;6229551;23;20618;-94
2022/01/31 02:30:26;;;;;;;1.80;1.43;;;7.00;99.90;;;;;;6234294;23;20176;-94
2022/01/31 02:32:57;;;;;;;1.53;1.00;;;7.00;99.90;;;;;;6236889;23;20591;-93
2022/01/31 02:35:29;;;;;;;1.20;1.10;;;6.90;99.90;;;;;;6233111;23;20176;-94
2022/01/31 02:38:14;;;;;;;1.07;0.87;;;6.90;99.90;;;;;;6232796;23;20199;-94
2022/01/31 02:40:46;;;;;;;1.40;0.70;;;6.80;99.90;;;;;;6232292;23;20191;-96
2022/01/31 02:43:22;;;;;;;0.90;0.60;;;6.80;99.90;;;;;;6232820;23;20196;-94
2022/01/31 02:45:53;;;;;;;0.57;0.50;;;6.70;99.90;;;;;;6243438;23;20283;-94
2022/01/31 02:48:28;;;;;;;0.70;0.70;;;6.70;99.90;;;;;;6243181;23;20176;-96
2022/01/31 02:50:59;;;;;;;0.80;0.50;;;6.60;99.90;;;;;;6242512;23;20176;-94
2022/01/31 02:56:18;;;;;;;1.07;0.50;;;6.60;99.90;;;;;;6232040;23;20580;-93
2022/01/31 02:58:51;;;;;;;1.23;0.60;;;6.60;99.90;;;;;;6232667;23;20176;-95
2022/01/31 03:01:23;;;;;;;1.83;1.63;;;6.50;99.90;;;;;;6211058;23;20176;-95
2022/01/31 03:03:56;;;;;;;0.60;0.50;;;6.50;99.90;;;;;;6236994;23;20216;-93
2022/01/31 03:06:28;;;;;;;1.80;0.50;;;6.40;99.90;;;;;;6235953;23;20179;-95
2022/01/31 03:09:03;;;;;;;1.13;0.40;;;6.40;99.90;;;;;;6236183;23;20215;-96
2022/01/31 03:11:35;;;;;;;1.10;0.63;;;6.30;99.90;;;;;;6238580;23;20198;-94
2022/01/31 03:14:07;;;;;;;0.80;0.50;;;6.30;99.90;;;;;;6238346;23;20183;-94
2022/01/31 03:19:16;;;;;;;0.50;0.40;;;6.20;99.90;;;;;;6247379;22;20263;-94
2022/01/31 03:21:51;;;;;;;3.03;0.37;;;6.20;99.90;;;;;;6232650;22;20220;-95
2022/01/31 03:24:25;;;;;;;0.57;0.20;;;6.20;99.90;;;;;;6243537;23;20179;-94
2022/01/31 03:26:58;;;;;;;0.37;0.37;;;6.10;99.90;;;;;;6241360;23;20183;-94
2022/01/31 03:29:31;;;;;;;2.00;0.93;;;6.10;99.90;;;;;;6242964;23;20174;-94
2022/01/31 03:32:06;;;;;;;0.47;0.37;;;6.10;99.90;;;;;;6243654;23;20153;-94
2022/01/31 03:34:48;;;;;;;0.83;0.30;;;6.10;99.90;;;;;;6243653;23;20245;-96
2022/01/31 03:37:20;;;;;;;3.43;0.60;;;6.10;99.90;;;;;;6243231;23;20230;-94
2022/01/31 03:39:58;;;;;;;3.40;0.30;;;6.00;99.90;;;;;;6236970;22;20203;-85
2022/01/31 03:42:30;;;;;;;0.77;0.50;;;6.10;99.90;;;;;;6243578;23;20186;-96
2022/01/31 03:45:03;;;;;;;1.43;0.30;;;6.00;99.90;;;;;;6243030;23;20164;-92
2022/01/31 03:47:44;;;;;;;1.17;0.50;;;6.00;99.90;;;;;;6243377;23;20163;-95
2022/01/31 03:50:23;;;;;;;2.40;0.40;;;6.00;99.90;;;;;;6243677;23;20156;-94
2022/01/31 03:52:56;;;;;;;0.63;0.37;;;6.00;99.90;;;;;;6243490;23;20250;-95
2022/01/31 03:55:32;;;;;;;2.10;0.47;;;6.00;99.90;;;;;;6218871;22;20226;-92
2022/01/31 03:58:05;;;;;;;0.43;0.30;;;5.90;99.90;;;;;;6242273;23;20207;-95
2022/01/31 04:00:42;;;;;;;1.40;0.40;;;5.90;99.90;;;;;;6241604;23;20176;-95
2022/01/31 04:03:13;;;;;;;3.50;2.60;;;5.90;99.90;;;;;;6242406;23;20190;-93
2022/01/31 04:05:48;;;;;;;0.60;0.40;;;5.90;99.90;;;;;;6241951;23;20176;-91
2022/01/31 04:08:20;;;;;;;2.57;0.60;;;5.90;99.90;;;;;;6216026;23;20164;-94
2022/01/31 04:10:54;;;;;;;2.03;0.50;;;5.80;99.90;;;;;;6242666;23;20184;-95
2022/01/31 04:13:26;;;;;;;1.37;0.47;;;5.80;99.90;;;;;;6242229;23;20163;-95
2022/01/31 04:18:39;;;;;;;2.57;0.60;;;5.80;99.90;;;;;;6233588;22;20207;-94
2022/01/31 04:23:47;;;;;;;1.67;0.40;;;5.70;99.90;;;;;;6242954;22;20279;-94
2022/01/31 04:26:23;;;;;;;3.47;1.47;;;5.70;99.90;;;;;;6241920;23;20160;-93
2022/01/31 04:29:04;;;;;;;1.03;0.40;;;5.70;99.90;;;;;;6219447;22;20216;-93
2022/01/31 04:31:40;;;;;;;1.93;0.60;;;5.60;99.90;;;;;;6193567;23;20196;-95
2022/01/31 04:34:13;;;;;;;3.63;0.67;;;5.60;99.90;;;;;;6186014;23;20176;-94
2022/01/31 04:36:45;;;;;;;1.77;0.70;;;5.50;99.90;;;;;;6208866;23;20208;-93
2022/01/31 04:39:19;;;;;;;1.63;0.57;;;5.50;99.90;;;;;;6209721;23;20171;-94
2022/01/31 04:41:55;;;;;;;2.50;0.70;;;5.40;99.90;;;;;;6211704;23;20177;-94
2022/01/31 04:44:27;;;;;;;7.70;0.90;;;5.40;99.90;;;;;;6212769;23;20180;-94
2022/01/31 04:46:58;;;;;;;2.90;0.97;;;5.30;99.90;;;;;;6207514;23;20177;-93
2022/01/31 04:49:33;;;;;;;3.30;1.23;;;5.30;99.90;;;;;;6209057;23;20173;-92
2022/01/31 04:52:07;;;;;;;3.13;0.93;;;5.30;99.90;;;;;;6208036;23;20165;-93
2022/01/31 04:54:38;;;;;;;5.03;2.47;;;5.30;99.90;;;;;;6207106;23;20168;-95
2022/01/31 04:57:14;;;;;;;4.33;1.43;;;5.20;99.90;;;;;;6205729;23;20188;-93
2022/01/31 04:59:48;;;;;;;4.30;0.90;;;5.20;99.90;;;;;;6204800;23;20239;-95
2022/01/31 05:02:23;;;;;;;3.57;1.23;;;5.20;99.90;;;;;;6207892;23;20231;-95
2022/01/31 05:04:57;;;;;;;7.73;1.87;;;5.10;99.90;;;;;;6205406;23;20169;-95
2022/01/31 05:07:29;;;;;;;4.10;0.90;;;5.10;99.90;;;;;;6207561;23;20177;-94
2022/01/31 05:10:09;;;;;;;2.90;0.80;;;5.00;99.90;;;;;;6196821;23;20184;-92
2022/01/31 05:12:43;;;;;;;8.03;1.30;;;5.00;99.90;;;;;;6201983;23;20192;-94
2022/01/31 05:15:16;;;;;;;3.60;0.83;;;4.90;99.90;;;;;;6202370;23;20199;-93
2022/01/31 05:17:48;;;;;;;2.47;0.83;;;4.90;99.90;;;;;;6222595;22;20215;-95
2022/01/31 05:20:21;;;;;;;5.40;1.50;;;4.90;99.90;;;;;;6188463;23;20256;-95
2022/01/31 05:22:53;;;;;;;7.10;1.27;;;4.90;99.90;;;;;;6209982;23;20160;-94
2022/01/31 05:25:26;;;;;;;5.97;1.00;;;4.90;99.90;;;;;;6226880;23;20200;-94
2022/01/31 05:28:01;;;;;;;6.37;0.93;;;4.90;99.90;;;;;;6202367;23;20184;-95
2022/01/31 05:30:34;;;;;;;6.63;1.40;;;4.90;99.90;;;;;;6230615;23;20183;-94
2022/01/31 05:33:06;;;;;;;6.27;1.23;;;4.80;99.90;;;;;;6207987;23;20637;-94
2022/01/31 05:35:38;;;;;;;4.77;1.10;;;4.80;99.90;;;;;;6232265;23;20223;-94
2022/01/31 05:38:08;;;;;;;7.80;1.60;;;4.90;99.90;;;;;;6232997;23;20200;-94
2022/01/31 05:40:40;;;;;;;3.57;1.00;;;4.90;99.90;;;;;;6229608;23;20184;-93
2022/01/31 05:43:13;;;;;;;8.03;1.43;;;4.80;99.90;;;;;;6226524;23;20176;-94
2022/01/31 05:45:44;;;;;;;10.63;1.27;;;4.80;99.90;;;;;;6230556;23;20199;-93
2022/01/31 05:48:18;;;;;;;9.13;1.43;;;4.80;99.90;;;;;;6223484;23;20239;-94
2022/01/31 05:50:50;;;;;;;6.60;0.90;;;4.80;99.90;;;;;;6224156;23;20215;-93
2022/01/31 05:53:21;;;;;;;5.93;0.80;;;4.70;99.90;;;;;;6223641;23;20181;-95
2022/01/31 05:55:53;;;;;;;5.83;1.10;;;4.80;99.90;;;;;;6224496;23;20254;-95
2022/01/31 05:58:26;;;;;;;3.50;0.90;;;4.70;99.90;;;;;;6224718;23;20196;-94
2022/01/31 06:00:58;;;;;;;7.43;1.53;;;4.70;99.90;;;;;;6201372;23;20192;-94
2022/01/31 06:03:29;;;;;;;7.53;1.17;;;4.70;99.90;;;;;;6239504;23;20171;-94
2022/01/31 06:06:00;;;;;;;6.63;0.83;;;4.70;99.90;;;;;;6214382;23;20157;-94
2022/01/31 06:08:32;;;;;;;4.70;1.30;;;4.80;99.90;;;;;;6240584;23;20173;-93
2022/01/31 06:11:04;;;;;;;2.63;1.03;;;4.70;99.90;;;;;;6237737;23;20165;-95
2022/01/31 06:13:38;;;;;;;5.40;0.97;;;4.80;99.90;;;;;;6228525;23;20191;-95
2022/01/31 06:16:09;;;;;;;8.70;1.17;;;4.70;99.90;;;;;;6235257;23;20177;-94
2022/01/31 06:18:40;;;;;;;2.60;1.03;;;4.70;99.90;;;;;;6231167;23;20243;-94
2022/01/31 06:21:13;;;;;;;7.30;1.10;;;4.70;99.90;;;;;;6232154;23;20193;-92
2022/01/31 06:29:08;;;;;;;5.80;0.77;;;4.80;99.90;;;;;;6140073;23;20224;-94
2022/01/31 06:31:41;;;;;;;4.27;0.90;;;4.70;99.90;;;;;;6135953;23;20250;-95
2022/01/31 06:34:12;;;;;;;4.67;1.03;;;4.60;99.90;;;;;;6150154;23;20167;-94
2022/01/31 06:36:44;;;;;;;4.30;1.30;;;4.60;99.90;;;;;;6148270;23;20154;-95
2022/01/31 06:39:17;;;;;;;3.50;0.60;;;4.60;99.90;;;;;;6141752;23;20257;-93
2022/01/31 06:41:48;;;;;;;3.10;0.90;;;4.60;99.90;;;;;;6134140;23;20181;-94
2022/01/31 06:44:21;;;;;;;4.43;0.83;;;4.70;99.90;;;;;;6146155;23;20633;-94
2022/01/31 06:46:53;;;;;;;3.77;0.73;;;4.70;99.90;;;;;;6134215;23;20633;-93
2022/01/31 06:49:24;;;;;;;7.03;0.97;;;4.60;99.90;;;;;;6134380;23;20171;-95
2022/01/31 06:51:56;;;;;;;3.00;0.67;;;4.60;99.90;;;;;;6134706;23;20309;-94
2022/01/31 06:54:27;;;;;;;7.17;1.50;;;4.60;99.90;;;;;;6137935;23;20178;-94
2022/01/31 06:56:59;;;;;;;7.10;1.03;;;4.50;99.90;;;;;;6136482;23;20221;-95
2022/01/31 06:59:33;;;;;;;8.07;1.00;;;4.50;99.90;;;;;;6163267;22;20203;-94
2022/01/31 07:02:06;;;;;;;2.67;0.90;;;4.50;99.90;;;;;;6255638;22;20168;-93
2022/01/31 07:04:38;;;;;;;3.20;0.80;;;4.60;99.90;;;;;;6256960;22;20199;-94
2022/01/31 07:07:11;;;;;;;6.43;0.87;;;4.50;99.90;;;;;;6255766;22;20215;-93
2022/01/31 07:09:43;;;;;;;8.17;1.20;;;4.60;99.90;;;;;;6259444;22;20179;-94
2022/01/31 07:12:16;;;;;;;3.27;0.70;;;4.50;99.90;;;;;;6263975;22;20175;-93
2022/01/31 07:14:49;;;;;;;3.87;0.87;;;4.50;99.90;;;;;;6252951;22;20168;-93
2022/01/31 07:17:21;;;;;;;3.80;1.07;;;4.60;99.90;;;;;;6253701;22;20170;-93
2022/01/31 07:19:53;;;;;;;2.47;0.50;;;4.50;99.90;;;;;;6253251;22;20231;-92
2022/01/31 07:22:32;;;;;;;2.33;0.93;;;4.50;99.90;;;;;;6251527;23;20229;-93
2022/01/31 07:25:05;;;;;;;2.70;0.90;;;4.50;99.90;;;;;;6253570;22;20171;-93
2022/01/31 07:27:37;;;;;;;2.50;0.40;;;4.40;99.90;;;;;;6252021;22;20202;-94
2022/01/31 07:30:11;;;;;;;3.90;0.60;;;4.50;99.90;;;;;;6253649;22;20168;-94
2022/01/31 07:32:43;;;;;;;2.47;0.60;;;4.40;99.90;;;;;;6254829;22;20168;-93
2022/01/31 07:35:17;;;;;;;2.43;0.50;;;4.40;99.90;;;;;;6254882;22;20222;-94
2022/01/31 07:37:48;;;;;;;1.77;0.40;;;4.30;99.90;;;;;;6257088;22;20175;-94
2022/01/31 07:40:20;;;;;;;2.73;0.63;;;4.30;99.90;;;;;;6253768;22;20207;-92
2022/01/31 07:42:51;;;;;;;2.27;0.50;;;4.30;99.90;;;;;;6260617;22;20156;-93
2022/01/31 07:45:24;;;;;;;2.43;0.50;;;4.30;99.90;;;;;;6273191;22;20179;-93
2022/01/31 07:47:55;;;;;;;4.93;0.70;;;4.20;99.90;;;;;;6272820;22;20159;-94
2022/01/31 07:50:27;;;;;;;1.73;0.40;;;4.20;99.90;;;;;;6266465;22;20168;-93
2022/01/31 07:52:58;;;;;;;0.77;0.40;;;4.20;99.90;;;;;;6256647;22;20235;-94
2022/01/31 07:55:31;;;;;;;2.23;0.67;;;4.00;99.90;;;;;;6257459;22;20203;-94
2022/01/31 07:58:03;;;;;;;1.70;0.57;;;3.80;99.90;;;;;;6251875;22;20175;-94
2022/01/31 08:00:51;;;;;;;1.37;0.50;;;3.60;99.90;;;;;;6252201;22;20248;-94
2022/01/31 08:03:23;;;;;;;6.73;1.13;;;3.50;99.90;;;;;;6252897;22;20259;-94
2022/01/31 08:05:54;;;;;;;4.30;1.10;;;3.50;99.90;;;;;;6253373;22;20249;-93
2022/01/31 08:08:28;;;;;;;3.73;1.00;;;3.40;99.90;;;;;;6252668;22;20210;-93
2022/01/31 08:11:00;;;;;;;3.67;0.87;;;3.30;99.90;;;;;;6253761;22;20175;-94
2022/01/31 08:13:31;;;;;;;1.30;0.47;;;3.30;99.90;;;;;;6256001;22;20176;-94
2022/01/31 08:16:12;;;;;;;1.77;0.70;;;3.30;99.90;;;;;;6257985;22;20180;-93
2022/01/31 08:18:46;;;;;;;2.80;0.80;;;3.10;99.90;;;;;;6253217;22;20251;-95
2022/01/31 08:21:20;;;;;;;1.97;0.60;;;3.10;99.90;;;;;;6256169;22;20172;-94
2022/01/31 08:23:52;;;;;;;1.87;0.70;;;3.00;99.90;;;;;;6256382;22;20191;-94
2022/01/31 08:26:24;;;;;;;3.10;0.90;;;3.00;99.90;;;;;;6271151;23;20183;-94
2022/01/31 08:28:58;;;;;;;3.13;0.60;;;3.10;99.90;;;;;;6271742;22;20223;-93
2022/01/31 08:31:46;;;;;;;2.00;0.70;;;3.10;99.90;;;;;;6260900;22;20167;-94
2022/01/31 08:34:24;;;;;;;2.93;0.80;;;3.10;99.90;;;;;;6259718;22;20262;-94
2022/01/31 08:36:55;;;;;;;3.57;0.87;;;3.10;99.90;;;;;;6257290;22;20175;-93
2022/01/31 08:39:28;;;;;;;2.07;0.80;;;3.20;99.90;;;;;;6259604;22;20188;-94
2022/01/31 08:42:00;;;;;;;2.63;0.70;;;3.10;99.90;;;;;;6268885;23;20203;-93
2022/01/31 08:44:31;;;;;;;4.80;1.00;;;3.20;99.90;;;;;;6267804;22;20167;-93
2022/01/31 08:47:05;;;;;;;1.17;0.53;;;3.20;99.90;;;;;;6265612;22;20176;-93
2022/01/31 08:49:37;;;;;;;3.50;0.80;;;3.20;99.90;;;;;;6271388;22;20155;-92
2022/01/31 08:52:08;;;;;;;5.40;0.73;;;3.20;99.90;;;;;;6268280;22;20179;-91
2022/01/31 08:54:41;;;;;;;2.10;0.63;;;3.20;99.90;;;;;;6270727;22;20171;-93
2022/01/31 08:57:12;;;;;;;1.30;0.70;;;3.20;99.90;;;;;;6265957;22;20168;-93
2022/01/31 08:59:50;;;;;;;3.80;0.50;;;3.20;99.90;;;;;;6253808;22;20215;-94
2022/01/31 09:02:36;;;;;;;2.00;0.53;;;3.20;99.90;;;;;;6256950;22;20203;-95
2022/01/31 09:05:09;;;;;;;2.03;0.60;;;3.20;99.90;;;;;;6256067;22;20198;-93
2022/01/31 09:07:43;;;;;;;2.93;0.57;;;3.00;99.90;;;;;;6255119;22;20194;-94
2022/01/31 09:10:15;;;;;;;2.90;0.97;;;3.00;99.90;;;;;;6260324;23;20168;-94
2022/01/31 09:12:48;;;;;;;3.67;0.63;;;3.00;99.90;;;;;;6251589;23;20171;-94
2022/01/31 09:15:19;;;;;;;3.67;0.50;;;2.90;99.90;;;;;;6253996;22;20199;-93
2022/01/31 09:17:53;;;;;;;2.10;0.60;;;2.90;99.90;;;;;;6261193;22;20233;-95
2022/01/31 09:20:26;;;;;;;1.90;0.60;;;2.80;99.90;;;;;;6252338;22;20199;-95
2022/01/31 09:22:58;;;;;;;4.47;0.60;;;2.80;99.90;;;;;;6255954;22;20175;-94
2022/01/31 09:25:30;;;;;;;3.37;0.73;;;2.80;99.90;;;;;;6250834;23;20176;-95
2022/01/31 09:28:04;;;;;;;2.00;0.47;;;2.70;99.90;;;;;;6252460;22;20164;-95
2022/01/31 09:33:09;;;;;;;4.13;0.90;;;2.70;99.90;;;;;;6192065;23;20193;-94
2022/01/31 09:35:42;;;;;;;1.70;0.40;;;2.70;99.90;;;;;;6200742;23;20165;-94
2022/01/31 09:38:16;;;;;;;1.97;0.60;;;2.70;99.90;;;;;;6189488;23;20519;-93
2022/01/31 09:40:52;;;;;;;4.17;0.80;;;2.70;99.90;;;;;;6191512;23;20196;-92
2022/01/31 09:46:45;;;;;;;1.40;0.60;;;2.70;99.90;;;;;;6141716;23;20676;-94
2022/01/31 09:49:26;;;;;;;2.53;0.63;;;2.70;99.90;;;;;;6197357;23;20181;-93
2022/01/31 09:55:09;;;;;;;2.07;0.80;;;2.70;99.90;;;;;;6194415;23;20176;-94
2022/01/31 09:57:43;;;;;;;2.23;0.77;;;2.80;99.90;;;;;;6196403;23;20196;-93
2022/01/31 10:00:20;;;;;;;1.37;0.50;;;2.80;99.90;;;;;;6203925;23;20532;-93
2022/01/31 10:03:09;;;;;;;1.07;0.60;;;2.80;99.90;;;;;;6205611;23;20173;-93
2022/01/31 10:05:45;;;;;;;5.70;0.93;;;2.80;99.90;;;;;;6206097;23;20165;-93
2022/01/31 10:08:18;;;;;;;1.30;0.57;;;2.80;99.90;;;;;;6203316;23;20184;-94
2022/01/31 10:10:55;;;;;;;4.90;0.77;;;2.80;99.90;;;;;;6194906;23;20513;-93
2022/01/31 10:16:32;;;;;;;2.00;0.70;;;2.90;99.90;;;;;;6207711;23;20236;-93
2022/01/31 10:19:26;;;;;;;0.87;0.37;;;2.90;99.90;;;;;;6200400;23;20185;-93
2022/01/31 10:22:08;;;;;;;4.73;0.60;;;2.90;99.90;;;;;;6200526;23;20168;-93
2022/01/31 10:24:43;;;;;;;0.80;0.40;;;2.90;99.90;;;;;;6199625;23;20181;-94
2022/01/31 10:27:18;;;;;;;2.87;0.70;;;2.90;99.90;;;;;;6199283;23;20169;-93
2022/01/31 10:29:51;;;;;;;3.70;0.70;;;2.90;99.90;;;;;;6199478;23;20559;-93
2022/01/31 10:32:28;;;;;;;2.47;0.70;;;2.90;99.90;;;;;;6199299;23;20586;-93
2022/01/31 10:35:07;;;;;;;2.67;0.73;;;2.90;99.90;;;;;;6200223;23;20188;-92
2022/01/31 10:37:41;;;;;;;1.60;0.50;;;2.80;99.90;;;;;;6201434;23;20183;-93
2022/01/31 10:51:14;;;;;;;3.73;0.70;;;2.80;99.90;;;;;;6206871;23;20188;-94
2022/01/31 10:54:23;;;;;;;4.90;0.80;;;2.80;99.90;;;;;;6250629;22;20222;-93
2022/01/31 10:56:57;;;;;;;2.87;0.60;;;2.70;99.90;;;;;;6252683;23;20176;-93
2022/01/31 10:59:32;;;;;;;4.13;0.70;;;2.70;99.90;;;;;;6259072;23;20168;-92
2022/01/31 11:02:06;;;;;;;7.53;0.97;;;2.70;99.90;;;;;;6254108;22;20195;-94
2022/01/31 11:04:40;;;;;;;3.70;0.70;;;2.60;99.90;;;;;;6256924;22;20561;-95
2022/01/31 11:07:13;;;;;;;3.67;0.77;;;2.70;99.90;;;;;;6252086;22;20688;-94
2022/01/31 11:09:48;;;;;;;5.47;0.80;;;2.70;99.90;;;;;;6255923;22;20178;-94
2022/01/31 11:12:24;;;;;;;1.10;0.90;;;2.70;99.90;;;;;;6263236;22;20451;-94
2022/01/31 11:14:56;;;;;;;3.67;0.57;;;2.70;99.90;;;;;;6269196;22;20179;-92
2022/01/31 11:17:27;;;;;;;3.23;0.77;;;2.80;99.90;;;;;;6267925;22;20168;-93
2022/01/31 11:20:01;;;;;;;2.67;0.60;;;2.80;99.90;;;;;;6267920;22;20248;-94
2022/01/31 11:22:37;;;;;;;7.00;0.93;;;2.90;99.90;;;;;;6262227;22;20194;-95
2022/01/31 11:25:22;;;;;;;6.23;1.03;;;2.80;99.90;;;;;;6258521;22;20183;-95
2022/01/31 11:27:58;;;;;;;8.57;0.70;;;2.80;99.90;;;;;;6252642;22;20214;-93
2022/01/31 11:30:32;;;;;;;3.80;0.80;;;2.80;99.90;;;;;;6263212;22;20179;-94
2022/01/31 11:33:04;;;;;;;3.53;0.77;;;2.80;99.90;;;;;;6268219;22;20255;-95
2022/01/31 11:35:37;;;;;;;3.23;0.80;;;2.90;99.90;;;;;;6256938;22;20219;-93
2022/01/31 11:38:09;;;;;;;3.30;1.07;;;2.90;99.90;;;;;;6261719;22;20183;-94
2022/01/31 11:40:43;;;;;;;9.17;0.93;;;2.90;99.90;;;;;;6269965;22;20199;-93
2022/01/31 11:43:17;;;;;;;3.60;0.97;;;2.90;99.90;;;;;;6271839;22;20163;-94
2022/01/31 11:45:52;;;;;;;3.73;0.87;;;2.80;99.90;;;;;;6272363;22;20166;-95
2022/01/31 11:48:26;;;;;;;5.37;1.07;;;2.80;99.90;;;;;;6271559;22;20229;-93
2022/01/31 11:51:01;;;;;;;4.87;1.27;;;2.80;99.90;;;;;;6269878;22;20254;-95
2022/01/31 11:53:34;;;;;;;5.80;0.80;;;2.70;99.90;;;;;;6261050;22;20188;-93
2022/01/31 11:56:10;;;;;;;5.30;0.80;;;2.80;99.90;;;;;;6258467;22;20183;-94
2022/01/31 11:58:48;;;;;;;2.47;0.80;;;2.80;99.90;;;;;;6264713;22;20202;-94
2022/01/31 12:01:23;;;;;;;3.87;0.90;;;2.90;99.90;;;;;;6258422;22;20204;-94
2022/01/31 12:03:55;;;;;;;2.13;0.53;;;2.90;99.90;;;;;;6272100;22;20194;-95
2022/01/31 12:06:42;;;;;;;5.37;1.17;;;2.90;99.90;;;;;;6272314;22;20155;-95
2022/01/31 12:09:18;;;;;;;5.70;1.13;;;2.80;99.90;;;;;;6272419;22;20152;-93
2022/01/31 12:12:04;;;;;;;7.00;1.57;;;2.80;99.90;;;;;;6272282;22;20159;-94
2022/01/31 12:14:46;;;;;;;5.93;0.93;;;2.80;99.90;;;;;;6257958;22;20168;-95
2022/01/31 12:17:51;;;;;;;7.50;1.07;;;2.80;99.90;;;;;;6253360;22;20210;-95
2022/01/31 12:21:59;;;;;;;4.23;1.23;;;2.90;99.90;;;;;;6272099;22;20189;-94
2022/01/31 12:23:50;;;;;;;3.87;1.20;;;3.00;99.90;;;;;;6270991;22;20175;-93
2022/01/31 12:26:50;;;;;;;5.77;1.00;;;2.90;99.90;;;;;;6271985;22;20159;-95
2022/01/31 12:29:27;;;;;;;3.13;0.73;;;2.90;99.90;;;;;;6272488;22;20203;-95
2022/01/31 12:32:00;;;;;;;5.07;1.03;;;3.00;99.90;;;;;;6263457;22;20175;-95
2022/01/31 12:34:44;;;;;;;6.97;1.20;;;2.90;99.90;;;;;;6259511;22;20171;-94
2022/01/31 12:37:22;;;;;;;6.37;1.00;;;2.90;99.90;;;;;;6265007;22;20167;-93
2022/01/31 12:40:04;;;;;;;6.20;1.07;;;3.00;99.90;;;;;;6265902;22;20187;-93
2022/01/31 12:43:10;;;;;;;5.90;0.87;;;3.00;99.90;;;;;;6273089;22;20187;-93
2022/01/31 12:48:37;;;;;;;3.10;0.77;;;3.10;99.90;;;;;;6230024;22;20285;-96
2022/01/31 12:51:15;;;;;;;10.33;1.37;;;3.20;99.90;;;;;;6226163;23;20182;-94
2022/01/31 12:53:49;;;;;;;3.47;0.70;;;3.30;99.90;;;;;;6202107;23;20180;-94
2022/01/31 12:56:31;;;;;;;3.53;1.00;;;3.30;99.90;;;;;;6225558;23;20627;-95
2022/01/31 12:59:13;;;;;;;3.43;0.77;;;3.30;99.90;;;;;;6241873;23;20168;-91
2022/01/31 13:01:46;;;;;;;8.17;1.23;;;3.30;99.90;;;;;;6241750;23;20203;-95
2022/01/31 13:04:22;;;;;;;3.47;0.80;;;3.30;99.90;;;;;;6230611;23;20183;-94
2022/01/31 13:06:54;;;;;;;6.60;1.27;;;3.30;99.90;;;;;;6206344;23;20207;-93
2022/01/31 13:09:27;;;;;;;7.40;0.93;;;3.30;99.90;;;;;;6241467;23;20168;-94
2022/01/31 13:12:01;;;;;;;2.33;0.70;;;3.30;99.90;;;;;;6238902;23;20176;-92
2022/01/31 13:14:34;;;;;;;5.30;0.80;;;3.30;99.90;;;;;;6227618;23;20207;-94
2022/01/31 13:17:15;;;;;;;5.43;0.80;;;3.30;99.90;;;;;;6224172;23;20228;-95
2022/01/31 13:19:50;;;;;;;4.73;1.10;;;3.30;99.90;;;;;;6225057;23;20180;-93
2022/01/31 13:22:27;;;;;;;5.10;1.00;;;3.30;99.90;;;;;;6227808;23;20352;-94
2022/01/31 13:25:00;;;;;;;10.57;1.37;;;3.20;99.90;;;;;;6224672;23;20634;-94
2022/01/31 13:27:46;;;;;;;5.30;1.17;;;3.20;99.90;;;;;;6225625;23;20234;-94
2022/01/31 13:30:20;;;;;;;8.33;1.00;;;3.20;99.90;;;;;;6226101;23;20168;-93
2022/01/31 13:32:52;;;;;;;4.87;0.90;;;3.30;99.90;;;;;;6227466;23;20176;-94
2022/01/31 13:35:29;;;;;;;5.60;1.60;;;3.30;99.90;;;;;;6225621;23;20176;-95
2022/01/31 13:38:05;;;;;;;5.30;0.90;;;3.30;99.90;;;;;;6224537;23;20549;-95
2022/01/31 13:40:47;;;;;;;15.13;1.33;;;3.30;99.90;;;;;;6224386;23;20202;-93
2022/01/31 13:43:22;;;;;;;3.03;0.93;;;3.30;99.90;;;;;;6225438;23;20195;-94
2022/01/31 13:46:00;;;;;;;5.27;1.20;;;3.30;99.90;;;;;;6201274;23;20179;-94
2022/01/31 13:48:47;;;;;;;4.93;1.30;;;3.30;99.90;;;;;;6224450;23;20634;-93
2022/01/31 13:51:30;;;;;;;6.53;1.30;;;3.30;99.90;;;;;;6225268;23;20168;-93
2022/01/31 13:54:05;;;;;;;8.07;1.20;;;3.30;99.90;;;;;;6224118;23;20690;-94
2022/01/31 13:56:37;;;;;;;5.50;1.00;;;3.20;99.90;;;;;;6223590;23;20282;-92
2022/01/31 13:59:11;;;;;;;10.10;1.17;;;3.20;99.90;;;;;;6224563;23;20176;-92
2022/01/31 14:01:43;;;;;;;2.03;0.90;;;3.20;99.90;;;;;;6223653;23;20207;-93
2022/01/31 14:04:30;;;;;;;6.13;1.40;;;3.20;99.90;;;;;;6224098;23;20176;-93
2022/01/31 14:07:03;;;;;;;4.80;1.13;;;3.20;99.90;;;;;;6225235;23;20254;-93
2022/01/31 14:09:36;;;;;;;5.57;1.10;;;3.20;99.90;;;;;;6228024;23;20224;-94
2022/01/31 14:12:16;;;;;;;8.07;1.33;;;3.20;99.90;;;;;;6227266;23;20180;-94
2022/01/31 14:14:47;;;;;;;6.57;1.27;;;3.20;99.90;;;;;;6227298;23;20187;-93
2022/01/31 14:17:19;;;;;;;6.50;1.70;;;3.20;99.90;;;;;;6227045;23;20192;-93
2022/01/31 14:19:54;;;;;;;3.77;0.90;;;3.20;99.90;;;;;;6228770;23;20208;-94
2022/01/31 14:22:31;;;;;;;5.83;1.30;;;3.20;99.90;;;;;;6217120;23;20195;-93
2022/01/31 14:25:10;;;;;;;8.47;1.40;;;3.20;99.90;;;;;;6242799;23;20244;-93
2022/01/31 14:27:51;;;;;;;3.27;1.00;;;3.30;99.90;;;;;;6241749;23;20164;-93